Goodman, Wisconsin
Current Conditions -  °F | °C
As of 5:54 AM on Saturday 25 Oct 2014 (Local Time) from KIMT Reporting Station
Clear Clear  
Wind Chill: 52°   Ceiling: Unl
Heat Index: 52°   Visibility: 10mi
Dew Point: 44°   Wind: 12mph
Humidity: 74%   Direction: 280°W
Pressure: 29.74"   Gusts: NA
Location:  45.63°N, 88.35°W
Report Text: KIMT 251054Z AUTO 28010KT 10SM CLR 11/07 A2974 RMK AO2 SLP074 T01110067
Loading
Personal Weather Stations






























Interactive Weather Map
Tropical Storm Tracking
New forecast layout! Learn more

10-Day Weather Forecast

Advertisements
Track Severe Weather on mobile